Flight Track Log - Related Links

Times and Time Zones

All times are in EDT time to prevent confusion due to time zone crossing. See the N356TB flight status page for this flight to view local times or setup timezone preferences in your user account.

Time Position Orientation Groundspeed Altitude Reporting Facility
EDT Latitude Longitude Course Direction KTS MPH feet Rate Location/Type
Sat 08:55:16 AM 39.9167 -86.0333 123° Southeast 107 123 1,100  Level Indianapolis TRACON
Sat 08:56:16 AM 39.9000 -86.0000 123° Southeast 110 127 1,900 750 Climbing Indianapolis TRACON
Sat 08:57:16 AM 39.8667 -85.9833 159° South 119 137 2,600 435 Climbing Indianapolis TRACON
Sat 08:58:20 AM 39.8386 -85.9736 165° South 122 140 2,800 432 Climbing Indianapolis Center
Sat 08:59:21 AM 39.7978 -85.9797 187° South 132 152 3,500 537 Climbing Indianapolis Center
Sat 09:00:23 AM 39.7658 -86.0006 207° Southwest 129 148 3,900 195 Climbing Indianapolis Center
Sat 09:01:24 AM 39.7311 -86.0225 206° Southwest 134 154 3,900  Level Indianapolis Center
Sat 09:02:26 AM 39.6964 -86.0458 207° Southwest 137 158 3,900  Level Indianapolis Center
Sat 09:03:27 AM 39.6608 -86.0669 205° Southwest 139 160 3,900  Level Indianapolis Center
Sat 09:04:28 AM 39.6258 -86.0894 206° Southwest 139 160 3,900  Level Indianapolis Center
Sat 09:05:30 AM 39.5906 -86.1119 206° Southwest 140 161 3,900  Level Indianapolis Center
Sat 09:06:31 AM 39.5561 -86.1356 208° Southwest 140 161 3,900  Level Indianapolis Center
Sat 09:07:33 AM 39.5197 -86.1578 205° Southwest 143 165 3,900  Level Indianapolis Center
Sat 09:08:34 AM 39.4842 -86.1800 206° Southwest 143 165 3,900  Level Indianapolis Center
Sat 09:09:36 AM 39.4417 -86.2075 207° Southwest 142 163 3,900  Level Indianapolis Center
Sat 09:10:37 AM 39.4053 -86.2300 206° Southwest 144 166 3,900  Level Indianapolis Center
Sat 09:11:39 AM 39.3703 -86.2522 206° Southwest 142 163 3,900  Level Indianapolis Center
Sat 09:12:40 AM 39.3342 -86.2753 206° Southwest 144 166 3,900  Level Indianapolis Center
Sat 09:13:42 AM 39.2994 -86.2975 206° Southwest 141 162 3,900  Level Indianapolis Center
Sat 09:14:43 AM 39.2639 -86.3197 206° Southwest 142 163 3,900  Level Indianapolis Center
Sat 09:15:45 AM 39.2297 -86.3428 208° Southwest 140 161 3,900  Level Indianapolis Center
Sat 09:16:46 AM 39.1947 -86.3650 206° Southwest 141 162 3,900  Level Indianapolis Center
Sat 09:17:48 AM 39.1525 -86.3908 205° Southwest 140 161 3,900  Level Indianapolis Center
Sat 09:18:49 AM 39.1175 -86.4136 207° Southwest 140 161 3,900  Level Indianapolis Center
Sat 09:19:51 AM 39.0819 -86.4344 204° Southwest 140 161 3,900  Level Indianapolis Center
Sat 09:20:52 AM 39.0467 -86.4556 205° Southwest 140 161 3,900  Level Indianapolis Center
Sat 09:21:54 AM 39.0117 -86.4803 209° Southwest 142 163 3,900  Level Indianapolis Center
Sat 09:22:55 AM 38.9758 -86.5019 205° Southwest 141 162 3,900  Level Indianapolis Center
Sat 09:23:57 AM 38.9406 -86.5253 207° Southwest 141 162 3,900  Level Indianapolis Center
Sat 09:24:59 AM 38.8978 -86.5508 205° Southwest 142 163 3,900 -49 Level Indianapolis Center
Sat 09:26:00 AM 38.8675 -86.5697 206° Southwest 143 165 3,800 -49 Descending Indianapolis Center
Sat 09:27:02 AM 38.8250 -86.5975 207° Southwest 141 162 3,800  Level Indianapolis Center
Sat 09:28:03 AM 38.7886 -86.6197 205° Southwest 142 163 3,800  Level Indianapolis Center
Sat 09:29:05 AM 38.7536 -86.6406 205° Southwest 140 161 3,800  Level Indianapolis Center
Sat 09:30:06 AM 38.7175 -86.6636 206° Southwest 142 163 3,800  Level Indianapolis Center
Sat 09:31:08 AM 38.6822 -86.6861 206° Southwest 141 162 3,800  Level Indianapolis Center
Sat 09:32:10 AM 38.6469 -86.7075 205° Southwest 140 161 3,800  Level Indianapolis Center
Sat 09:33:11 AM 38.6122 -86.7289 206° Southwest 138 159 3,800  Level Indianapolis Center
Sat 09:34:13 AM 38.5775 -86.7511 207° Southwest 139 160 3,800  Level Indianapolis Center
Sat 09:35:14 AM 38.5419 -86.7722 205° Southwest 139 160 3,800 -244 Level Indianapolis Center
Sat 09:36:16 AM 38.5061 -86.7950 206° Southwest 141 162 3,300 -581 Descending Indianapolis Center
Sat 09:37:18 AM 38.4611 -86.8222 205° Southwest 146 168 2,600 -488 Descending Indianapolis Center
Sat 09:38:19 AM 38.4250 -86.8453 207° Southwest 145 167 2,300 -146 Descending Indianapolis Center
Sat 09:39:21 AM 38.3914 -86.8664 206° Southwest 140 161 2,300  Level Indianapolis Center
Sat 09:40:22 AM 38.3583 -86.8861 205° Southwest 134 154 2,300  Level Indianapolis Center
Sat 09:41:24 AM 38.3242 -86.9078 206° Southwest 134 154 2,300 -145 Level Indianapolis Center
Sat 09:42:26 AM 38.2906 -86.9300 207° Southwest 134 154 2,000 -488 Descending Indianapolis Center
Sat 09:43:27 AM 38.2722 -86.9647 236° Southwest 122 140 1,300 -488 Descending Indianapolis Center
Sat 09:44:29 AM 38.2550 -86.9858 224° Southwest 109 125 1,000 -387 Descending Indianapolis Center
Sat 09:45:31 AM 38.2481 -86.9558 106° East 98 113 500 -484 Descending Indianapolis Center
Sat 09:47:00 AM 38.2490 -86.9537 North  Level Estimated

Login

Don't have an account? Register now (free) for customized features, flight alerts, and more!